createdAt,value
2019-02-14T00:00:16.467Z,9.77
2019-02-14T00:02:45.890Z,9.60
2019-02-14T00:05:16.722Z,10.63
2019-02-14T00:07:46.298Z,9.77
2019-02-14T00:10:15.703Z,9.50
2019-02-14T00:12:45.152Z,8.47
2019-02-14T00:15:14.892Z,9.37
2019-02-14T00:17:44.274Z,8.80
2019-02-14T00:20:13.647Z,9.27
2019-02-14T00:22:42.994Z,8.93
2019-02-14T00:25:13.931Z,9.00
2019-02-14T00:27:43.307Z,8.80
2019-02-14T00:30:12.729Z,10.17
2019-02-14T00:32:42.121Z,9.30
2019-02-14T00:35:11.386Z,9.90
2019-02-14T00:37:40.774Z,10.40
2019-02-14T00:40:11.748Z,9.40
2019-02-14T00:42:41.914Z,12.37
2019-02-14T00:45:11.268Z,13.33
2019-02-14T00:47:40.692Z,13.33
2019-02-14T00:50:10.077Z,12.40
2019-02-14T00:52:39.444Z,12.07
2019-02-14T00:55:08.817Z,13.10
2019-02-14T00:57:38.224Z,9.70
2019-02-14T01:00:12.233Z,10.53
2019-02-14T01:02:41.606Z,10.23
2019-02-14T01:05:11.015Z,10.30
2019-02-14T01:07:40.467Z,12.23
2019-02-14T01:10:09.925Z,13.10
2019-02-14T01:12:39.297Z,12.80
2019-02-14T01:15:10.182Z,13.90
2019-02-14T01:17:39.550Z,13.07
2019-02-14T01:20:09.013Z,13.07
2019-02-14T01:22:38.425Z,12.47
2019-02-14T01:25:07.788Z,13.00
2019-02-14T01:27:37.190Z,13.30
2019-02-14T01:30:09.878Z,12.57
2019-02-14T01:32:39.248Z,12.73
2019-02-14T01:35:09.465Z,13.90
2019-02-14T01:37:38.855Z,14.03
2019-02-14T01:40:08.853Z,13.50
2019-02-14T01:42:38.243Z,13.07
2019-02-14T01:45:10.684Z,14.40
2019-02-14T01:47:40.051Z,13.07
2019-02-14T01:50:10.978Z,13.10
2019-02-14T01:52:40.336Z,12.23
2019-02-14T01:55:09.769Z,12.37
2019-02-14T01:57:40.780Z,13.97
2019-02-14T02:00:13.371Z,12.30
2019-02-14T02:02:42.764Z,12.37
2019-02-14T02:05:13.337Z,12.03
2019-02-14T02:07:42.716Z,12.00
2019-02-14T02:10:12.729Z,11.23
2019-02-14T02:12:42.118Z,13.13
2019-02-14T02:15:13.634Z,12.20
2019-02-14T02:17:43.028Z,9.80
2019-02-14T02:20:12.706Z,10.00
2019-02-14T02:22:43.818Z,11.57
2019-02-14T02:25:13.269Z,11.03
2019-02-14T02:27:42.750Z,10.37
2019-02-14T02:30:14.451Z,10.00
2019-02-14T02:32:49.965Z,11.23
2019-02-14T02:35:20.311Z,11.87
2019-02-14T02:37:49.676Z,10.43
2019-02-14T02:40:19.098Z,9.87
2019-02-14T02:42:48.478Z,10.80
2019-02-14T02:45:17.858Z,10.67
2019-02-14T02:47:47.295Z,9.60
2019-02-14T02:50:16.728Z,10.77
2019-02-14T02:52:46.092Z,13.10
2019-02-14T02:55:15.464Z,11.77
2019-02-14T02:57:46.923Z,11.90
2019-02-14T03:00:18.990Z,12.10
2019-02-14T03:02:48.758Z,13.33
2019-02-14T03:05:18.127Z,12.20
2019-02-14T03:07:47.584Z,12.13
2019-02-14T03:10:16.947Z,12.27
2019-02-14T03:12:46.327Z,11.57
2019-02-14T03:15:16.476Z,12.73
2019-02-14T03:17:45.840Z,11.70
2019-02-14T03:20:15.284Z,11.53
2019-02-14T03:22:44.774Z,10.20
2019-02-14T03:25:18.679Z,10.70
2019-02-14T03:27:48.134Z,11.93
2019-02-14T03:30:17.586Z,11.50
2019-02-14T03:32:48.385Z,10.77
2019-02-14T03:35:17.847Z,10.60
2019-02-14T03:37:47.250Z,10.63
2019-02-14T03:40:16.634Z,10.87
2019-02-14T03:42:46.267Z,11.57
2019-02-14T03:45:17.287Z,9.10
2019-02-14T03:47:46.653Z,10.20
2019-02-14T03:50:16.140Z,9.87
2019-02-14T03:52:45.580Z,10.20
2019-02-14T03:55:14.954Z,9.50
2019-02-14T03:57:44.354Z,9.23
2019-02-14T04:00:16.351Z,8.87
2019-02-14T04:02:45.716Z,9.60
2019-02-14T04:05:15.078Z,9.07
2019-02-14T04:07:44.443Z,8.10
2019-02-14T04:10:14.646Z,8.17
2019-02-14T04:12:44.007Z,7.67
2019-02-14T04:15:15.523Z,7.87
2019-02-14T04:17:45.027Z,8.27
2019-02-14T04:20:14.391Z,6.90
2019-02-14T04:22:43.754Z,8.97
2019-02-14T04:25:13.133Z,10.90
2019-02-14T04:27:44.331Z,10.50
2019-02-14T04:30:14.332Z,10.03
2019-02-14T04:32:43.725Z,10.23
2019-02-14T04:35:15.348Z,10.73
2019-02-14T04:37:44.783Z,10.50
2019-02-14T04:40:14.277Z,10.10
2019-02-14T04:42:43.645Z,10.50
2019-02-14T04:45:13.510Z,11.57
2019-02-14T04:47:43.344Z,10.80
2019-02-14T04:50:12.800Z,10.40
2019-02-14T04:52:42.149Z,11.40
2019-02-14T04:55:11.873Z,10.70
2019-02-14T04:57:41.292Z,9.17
2019-02-14T05:00:12.976Z,9.33
2019-02-14T05:02:42.373Z,8.50
2019-02-14T05:05:14.811Z,9.93
2019-02-14T05:07:44.215Z,11.10
2019-02-14T05:10:13.591Z,10.20
2019-02-14T05:12:49.055Z,9.57
2019-02-14T05:15:18.391Z,10.20
2019-02-14T05:17:47.778Z,12.27
2019-02-14T05:20:17.199Z,11.23
2019-02-14T05:22:46.572Z,10.80
2019-02-14T05:25:15.955Z,10.50
2019-02-14T05:27:45.311Z,7.90
2019-02-14T05:30:21.153Z,8.63
2019-02-14T05:32:55.077Z,10.50
2019-02-14T05:35:24.394Z,10.60
2019-02-14T05:37:53.856Z,8.23
2019-02-14T05:40:23.223Z,12.10
2019-02-14T05:42:52.659Z,12.40
2019-02-14T05:45:22.079Z,12.30
2019-02-14T05:47:51.456Z,14.43
2019-02-14T05:50:20.903Z,12.97
2019-02-14T05:52:50.284Z,12.33
2019-02-14T05:55:19.672Z,13.10
2019-02-14T05:57:49.065Z,12.17
2019-02-14T06:00:19.627Z,12.53
2019-02-14T06:02:49.072Z,11.07
2019-02-14T06:05:18.452Z,10.53
2019-02-14T06:07:47.829Z,10.13
2019-02-14T06:10:17.201Z,14.67
2019-02-14T06:12:46.572Z,12.63
2019-02-14T06:15:17.290Z,10.10
2019-02-14T06:17:46.688Z,12.77
2019-02-14T06:20:16.074Z,11.27
2019-02-14T06:22:45.427Z,9.93
2019-02-14T06:25:14.819Z,12.40
2019-02-14T06:27:44.190Z,11.47
2019-02-14T06:30:16.987Z,11.60
2019-02-14T06:32:46.350Z,11.50
2019-02-14T06:35:15.734Z,10.57
2019-02-14T06:37:45.220Z,10.00
2019-02-14T06:40:14.797Z,10.90
2019-02-14T06:42:44.176Z,13.10
2019-02-14T06:45:19.008Z,9.57
2019-02-14T06:47:48.376Z,13.73
2019-02-14T06:50:20.511Z,9.87
2019-02-14T06:52:49.848Z,12.60
2019-02-14T06:55:19.301Z,10.87
2019-02-14T06:57:48.722Z,12.40
2019-02-14T07:00:18.208Z,9.77
2019-02-14T07:02:47.627Z,14.37
2019-02-14T07:05:17.066Z,9.70
2019-02-14T07:07:46.448Z,10.53
2019-02-14T07:10:15.920Z,10.27
2019-02-14T07:12:45.293Z,14.83
2019-02-14T07:15:15.103Z,15.57
2019-02-14T07:17:44.551Z,14.20
2019-02-14T07:20:15.779Z,12.23
2019-02-14T07:22:45.193Z,11.40
2019-02-14T07:25:14.626Z,11.00
2019-02-14T07:27:43.998Z,12.30
2019-02-14T07:30:19.305Z,11.60
2019-02-14T07:32:48.678Z,13.03
2019-02-14T07:35:18.108Z,12.17
2019-02-14T07:37:47.468Z,11.83
2019-02-14T07:40:16.847Z,12.50
2019-02-14T07:42:46.212Z,11.37
2019-02-14T07:45:18.675Z,11.77
2019-02-14T07:47:48.072Z,13.97
2019-02-14T07:50:17.539Z,13.70
2019-02-14T07:52:46.893Z,14.03
2019-02-14T07:55:16.305Z,13.97
2019-02-14T07:57:45.819Z,13.67
2019-02-14T08:00:17.568Z,14.07
2019-02-14T08:02:47.009Z,12.90
2019-02-14T08:05:16.459Z,14.13
2019-02-14T08:07:45.925Z,13.33
2019-02-14T08:10:17.728Z,15.03
2019-02-14T08:12:47.133Z,13.37
2019-02-14T08:15:16.503Z,14.00
2019-02-14T08:17:45.869Z,14.77
2019-02-14T08:20:17.836Z,14.87
2019-02-14T08:22:47.231Z,15.30
2019-02-14T08:25:16.610Z,14.00
2019-02-14T08:27:47.144Z,16.13
2019-02-14T08:30:18.901Z,16.23
2019-02-14T08:32:48.314Z,15.67
2019-02-14T08:35:17.679Z,15.17
2019-02-14T08:37:47.077Z,14.23
2019-02-14T08:40:27.992Z,16.17
2019-02-14T08:42:58.666Z,14.70
2019-02-14T08:45:28.241Z,14.50
2019-02-14T08:47:57.633Z,13.37
2019-02-14T08:50:27.001Z,13.37
2019-02-14T08:52:56.371Z,13.87
2019-02-14T08:55:25.810Z,13.93
2019-02-14T08:57:55.180Z,13.43
2019-02-14T09:00:24.650Z,14.03
2019-02-14T09:02:54.025Z,13.13
2019-02-14T09:05:27.708Z,13.40
2019-02-14T09:07:57.139Z,12.50
2019-02-14T09:10:26.552Z,12.27
2019-02-14T09:12:55.951Z,11.30
2019-02-14T09:15:25.361Z,11.33
2019-02-14T09:17:54.734Z,11.93
2019-02-14T09:20:24.127Z,12.50
2019-02-14T09:22:53.507Z,11.63
2019-02-14T09:25:22.866Z,11.83
2019-02-14T09:27:52.268Z,11.33
2019-02-14T09:30:24.384Z,10.77
2019-02-14T09:32:53.969Z,10.30
2019-02-14T09:35:23.322Z,10.40
2019-02-14T09:38:02.798Z,9.73
2019-02-14T09:40:25.219Z,10.23
2019-02-14T09:42:54.741Z,9.53
2019-02-14T09:45:24.162Z,8.87
2019-02-14T09:47:54.085Z,9.63
2019-02-14T09:50:23.610Z,14.83
2019-02-14T09:52:53.385Z,15.80
2019-02-14T09:55:22.848Z,12.37
2019-02-14T09:57:52.210Z,14.37
2019-02-14T10:00:21.603Z,31.63
2019-02-14T10:02:50.954Z,13.70
2019-02-14T10:05:20.662Z,13.13
2019-02-14T10:07:50.096Z,22.90
2019-02-14T10:10:23.909Z,14.80
2019-02-14T10:12:53.336Z,18.03
2019-02-14T10:15:22.631Z,16.90
2019-02-14T10:17:51.992Z,14.37
2019-02-14T10:20:21.368Z,13.73
2019-02-14T10:22:50.731Z,12.70
2019-02-14T10:25:20.183Z,11.87
2019-02-14T10:27:49.588Z,14.03
2019-02-14T10:30:20.588Z,13.17
2019-02-14T10:32:49.976Z,12.07
2019-02-14T10:35:19.338Z,12.93
2019-02-14T10:37:48.815Z,15.20
2019-02-14T10:40:18.247Z,13.60
2019-02-14T10:42:47.617Z,13.17
2019-02-14T10:45:21.327Z,13.30
2019-02-14T10:47:50.692Z,13.20
2019-02-14T10:50:20.067Z,13.30
2019-02-14T10:52:49.470Z,14.50
2019-02-14T10:55:18.823Z,13.87
2019-02-14T10:57:48.185Z,13.83
2019-02-14T11:00:20.523Z,13.43
2019-02-14T11:02:50.050Z,15.13
2019-02-14T11:05:19.947Z,12.40
2019-02-14T11:07:49.341Z,13.17
2019-02-14T11:10:18.857Z,12.13
2019-02-14T11:12:48.308Z,12.53
2019-02-14T11:15:22.157Z,12.03
2019-02-14T11:17:51.531Z,12.07
2019-02-14T11:20:20.906Z,12.67
2019-02-14T11:22:50.361Z,12.33
2019-02-14T11:25:28.562Z,14.73
2019-02-14T11:27:58.035Z,12.63
2019-02-14T11:30:27.425Z,14.67
2019-02-14T11:32:56.783Z,12.53
2019-02-14T11:35:26.181Z,13.30
2019-02-14T11:37:55.555Z,14.57
2019-02-14T11:40:24.944Z,13.43
2019-02-14T11:42:54.247Z,12.73
2019-02-14T11:45:24.976Z,13.43
2019-02-14T11:47:54.347Z,13.33
2019-02-14T11:50:24.217Z,13.00
2019-02-14T11:52:53.649Z,13.60
2019-02-14T11:55:23.021Z,13.40
2019-02-14T11:57:52.459Z,13.47
2019-02-14T12:00:24.457Z,14.83
2019-02-14T12:02:55.866Z,15.47
2019-02-14T12:05:25.000Z,14.70
2019-02-14T12:07:54.366Z,14.17
2019-02-14T12:10:23.758Z,14.50
2019-02-14T12:12:53.168Z,14.33
2019-02-14T12:15:23.381Z,13.37
2019-02-14T12:17:53.027Z,14.83
2019-02-14T12:20:22.499Z,14.03
2019-02-14T12:22:51.875Z,13.97
2019-02-14T12:25:27.180Z,13.83
2019-02-14T12:27:56.584Z,14.10
2019-02-14T12:30:25.992Z,14.80
2019-02-14T12:32:55.483Z,13.43
2019-02-14T12:35:24.872Z,12.93
2019-02-14T12:37:54.285Z,13.50
2019-02-14T12:40:23.723Z,13.30
2019-02-14T12:42:53.221Z,13.90
2019-02-14T12:45:28.737Z,15.10
2019-02-14T12:47:58.130Z,14.30
2019-02-14T12:50:27.550Z,12.90
2019-02-14T12:52:56.995Z,13.23
2019-02-14T12:55:26.456Z,14.43
2019-02-14T12:57:55.843Z,15.10
2019-02-14T13:00:25.244Z,13.13
2019-02-14T13:02:54.664Z,14.53
2019-02-14T13:05:25.076Z,12.97
2019-02-14T13:07:55.326Z,13.38
2019-02-14T13:10:25.401Z,13.62
2019-02-14T13:12:57.008Z,14.47
2019-02-14T13:15:27.824Z,14.28
2019-02-14T13:17:57.825Z,14.35
2019-02-14T13:20:27.885Z,13.72
2019-02-14T13:22:57.954Z,13.20
2019-02-14T13:25:28.036Z,12.82
2019-02-14T13:27:58.084Z,12.78
2019-02-14T13:30:29.490Z,12.75
2019-02-14T13:33:00.847Z,12.30
2019-02-14T13:35:30.805Z,31.40
2019-02-14T13:38:00.872Z,14.70
2019-02-14T13:40:30.840Z,12.98
2019-02-14T13:43:01.659Z,12.40
2019-02-14T13:45:33.381Z,15.25
2019-02-14T13:48:03.719Z,15.75
2019-02-14T13:50:33.710Z,12.47
2019-02-14T13:53:03.705Z,13.93
2019-02-14T13:55:33.687Z,14.73
2019-02-14T13:58:03.674Z,16.25
2019-02-14T14:00:33.700Z,15.70
2019-02-14T14:03:03.743Z,15.15
2019-02-14T14:05:33.845Z,13.40
2019-02-14T14:08:03.272Z,15.70
2019-02-14T14:10:32.652Z,16.00
2019-02-14T14:13:02.025Z,16.67
2019-02-14T14:15:31.414Z,13.70
2019-02-14T14:18:01.193Z,14.77
2019-02-14T14:20:30.646Z,13.93
2019-02-14T14:23:00.069Z,16.40
2019-02-14T14:25:29.512Z,14.90
2019-02-14T14:27:59.178Z,13.70
2019-02-14T14:30:28.551Z,14.27
2019-02-14T14:32:57.928Z,13.40
2019-02-14T14:35:27.336Z,14.97
2019-02-14T14:37:56.734Z,18.13
2019-02-14T14:40:26.195Z,14.67
2019-02-14T14:43:17.771Z,13.33
2019-02-14T14:46:07.242Z,14.03
2019-02-14T14:48:38.322Z,13.80
2019-02-14T14:51:07.710Z,12.53
2019-02-14T14:53:37.088Z,14.20
2019-02-14T14:56:06.459Z,14.87
2019-02-14T14:58:35.846Z,15.17
2019-02-14T15:01:05.222Z,17.97
2019-02-14T15:03:34.664Z,16.07
2019-02-14T15:06:04.062Z,14.67
2019-02-14T15:08:33.587Z,14.80
2019-02-14T15:11:22.383Z,15.10
2019-02-14T15:13:51.796Z,14.37
2019-02-14T15:16:21.216Z,15.37
2019-02-14T15:18:50.637Z,15.40
2019-02-14T15:21:20.063Z,15.93
2019-02-14T15:23:49.451Z,16.40
2019-02-14T15:26:18.860Z,16.20
2019-02-14T15:28:48.313Z,16.23
2019-02-14T15:31:17.778Z,16.30
2019-02-14T15:33:48.232Z,18.70
2019-02-14T15:36:19.256Z,14.57
2019-02-14T15:38:50.281Z,17.27
2019-02-14T15:41:19.750Z,16.30
2019-02-14T15:43:49.304Z,16.03
2019-02-14T15:46:18.760Z,16.00
2019-02-14T15:48:48.696Z,16.50
2019-02-14T15:51:19.934Z,17.70
2019-02-14T15:53:49.403Z,17.80
2019-02-14T15:56:18.798Z,18.40
2019-02-14T15:58:48.325Z,49.27
2019-02-14T16:01:19.015Z,29.07
2019-02-14T16:03:48.555Z,18.00
2019-02-14T16:06:17.980Z,19.63
2019-02-14T16:08:48.928Z,19.80
2019-02-14T16:11:18.463Z,18.93
2019-02-14T16:13:47.851Z,18.07
2019-02-14T16:16:17.201Z,17.43
2019-02-14T16:18:47.195Z,16.33
2019-02-14T16:21:17.815Z,17.23
2019-02-14T16:23:47.288Z,16.37
2019-02-14T16:26:17.148Z,16.60
2019-02-14T16:28:46.648Z,19.87
2019-02-14T16:31:16.020Z,18.97
2019-02-14T16:33:45.383Z,19.70
2019-02-14T16:36:14.754Z,19.57
2019-02-14T16:38:44.190Z,18.53
2019-02-14T16:41:13.581Z,18.20
2019-02-14T16:43:42.962Z,19.37
2019-02-14T16:46:12.304Z,19.43
2019-02-14T16:48:41.652Z,18.50
2019-02-14T16:51:11.067Z,18.90
2019-02-14T16:53:40.451Z,20.23
2019-02-14T16:56:09.871Z,20.37
2019-02-14T16:58:39.936Z,26.37
2019-02-14T17:01:10.976Z,26.57
2019-02-14T17:03:40.420Z,17.87
2019-02-14T17:06:09.781Z,16.20
2019-02-14T17:08:39.550Z,19.87
2019-02-14T17:11:08.992Z,19.23
2019-02-14T17:13:38.515Z,19.50
2019-02-14T17:16:07.952Z,20.70
2019-02-14T17:18:37.470Z,20.27
2019-02-14T17:21:07.438Z,21.20
2019-02-14T17:23:36.826Z,21.30
2019-02-14T17:26:07.097Z,19.40
2019-02-14T17:28:36.618Z,19.77
2019-02-14T17:31:05.977Z,22.17
2019-02-14T17:33:35.366Z,24.63
2019-02-14T17:36:04.778Z,19.20
2019-02-14T17:38:34.165Z,18.00
2019-02-14T17:41:03.537Z,18.17
2019-02-14T17:43:32.901Z,19.60
2019-02-14T17:46:02.597Z,22.80
2019-02-14T17:48:31.971Z,20.60
2019-02-14T17:51:01.363Z,21.03
2019-02-14T17:53:30.742Z,22.20
2019-02-14T17:56:00.108Z,20.53
2019-02-14T17:58:29.478Z,20.63
2019-02-14T18:00:59.147Z,20.57
2019-02-14T18:03:28.526Z,21.63
2019-02-14T18:05:57.919Z,21.03
2019-02-14T18:08:27.291Z,22.70
2019-02-14T18:10:56.847Z,17.60
2019-02-14T18:13:26.380Z,20.73
2019-02-14T18:15:55.803Z,19.27
2019-02-14T18:18:25.193Z,20.93
2019-02-14T18:20:56.081Z,20.33
2019-02-14T18:23:25.468Z,22.17
2019-02-14T18:25:54.916Z,20.70
2019-02-14T18:28:24.367Z,19.77
2019-02-14T18:30:53.781Z,20.13
2019-02-14T18:33:23.213Z,20.77
2019-02-14T18:35:52.689Z,22.37
2019-02-14T18:38:22.087Z,21.30
2019-02-14T18:40:51.457Z,20.50
2019-02-14T18:43:20.880Z,25.53
2019-02-14T18:45:50.285Z,23.20
2019-02-14T18:48:19.656Z,24.13
2019-02-14T18:50:50.146Z,21.40
2019-02-14T18:53:19.507Z,21.33
2019-02-14T18:55:48.893Z,21.10
2019-02-14T18:58:26.030Z,21.43
2019-02-14T19:00:49.817Z,22.37
2019-02-14T19:03:19.276Z,23.10
2019-02-14T19:05:48.709Z,22.97
2019-02-14T19:08:18.123Z,22.23
2019-02-14T19:10:47.592Z,21.37
2019-02-14T19:13:18.866Z,23.13
2019-02-14T19:15:48.313Z,23.13
2019-02-14T19:18:17.681Z,34.03
2019-02-14T19:20:47.113Z,30.43
2019-02-14T19:23:24.086Z,24.53
2019-02-14T19:25:47.634Z,24.67
2019-02-14T19:28:17.006Z,25.27
2019-02-14T19:30:46.372Z,24.80
2019-02-14T19:33:15.834Z,25.97
2019-02-14T19:35:45.193Z,26.47
2019-02-14T19:38:14.597Z,27.37
2019-02-14T19:40:43.972Z,24.20
2019-02-14T19:43:13.517Z,23.47
2019-02-14T19:45:42.822Z,23.07
2019-02-14T19:48:12.209Z,21.63
2019-02-14T19:50:41.645Z,22.00
2019-02-14T19:53:11.185Z,21.93
2019-02-14T19:55:40.573Z,21.27
2019-02-14T19:58:09.946Z,23.80
2019-02-14T20:00:39.319Z,26.63
2019-02-14T20:03:08.766Z,26.63
2019-02-14T20:05:38.195Z,26.40
2019-02-14T20:08:07.574Z,26.93
2019-02-14T20:10:37.720Z,27.73
2019-02-14T20:13:07.104Z,26.57
2019-02-14T20:15:37.593Z,28.87
2019-02-14T20:18:07.263Z,24.47
2019-02-14T20:20:36.685Z,24.37
2019-02-14T20:23:06.118Z,24.67
2019-02-14T20:25:35.534Z,25.07
2019-02-14T20:28:04.918Z,25.77
2019-02-14T20:30:34.402Z,26.20
2019-02-14T20:33:05.006Z,26.17
2019-02-14T20:35:34.510Z,25.00
2019-02-14T20:38:03.872Z,24.50
2019-02-14T20:40:33.251Z,24.37
2019-02-14T20:43:02.680Z,23.80
2019-02-14T20:45:32.123Z,23.53
2019-02-14T20:48:01.536Z,24.43
2019-02-14T20:50:30.965Z,24.10
2019-02-14T20:53:00.377Z,24.63
2019-02-14T20:55:29.804Z,25.07
2019-02-14T20:57:59.210Z,22.37
2019-02-14T21:00:30.242Z,23.70
2019-02-14T21:02:59.632Z,23.67
2019-02-14T21:05:29.069Z,20.53
2019-02-14T21:07:58.459Z,21.10
2019-02-14T21:10:27.966Z,20.50
2019-02-14T21:12:57.416Z,21.50
2019-02-14T21:15:26.851Z,20.83
2019-02-14T21:17:56.227Z,20.93
2019-02-14T21:20:25.630Z,20.20
2019-02-14T21:22:54.991Z,21.87
2019-02-14T21:25:24.369Z,20.60
2019-02-14T21:27:53.786Z,20.17
2019-02-14T21:30:23.284Z,19.83
2019-02-14T21:32:52.802Z,18.60
2019-02-14T21:35:22.274Z,17.87
2019-02-14T21:37:51.729Z,17.00
2019-02-14T21:40:21.249Z,18.33
2019-02-14T21:42:50.699Z,17.57
2019-02-14T21:45:20.142Z,17.20
2019-02-14T21:47:49.620Z,18.70
2019-02-14T21:50:19.027Z,19.73
2019-02-14T21:52:48.491Z,19.77
2019-02-14T21:55:17.957Z,19.83
2019-02-14T21:57:47.409Z,19.30
2019-02-14T22:00:19.678Z,19.10
2019-02-14T22:02:49.125Z,18.83
2019-02-14T22:05:24.518Z,21.47
2019-02-14T22:07:49.758Z,19.20
2019-02-14T22:10:19.188Z,19.10
2019-02-14T22:12:48.589Z,21.33
2019-02-14T22:15:27.038Z,21.70
2019-02-14T22:17:56.474Z,20.87
2019-02-14T22:20:25.912Z,22.40
2019-02-14T22:22:55.335Z,21.47
2019-02-14T22:25:24.733Z,22.30
2019-02-14T22:27:54.167Z,21.80
2019-02-14T22:30:23.564Z,21.50
2019-02-14T22:32:52.899Z,22.00
2019-02-14T22:35:22.264Z,19.37
2019-02-14T22:37:51.660Z,19.83
2019-02-14T22:40:21.056Z,20.40
2019-02-14T22:42:50.412Z,18.90
2019-02-14T22:45:19.814Z,16.93
2019-02-14T22:47:49.259Z,17.47
2019-02-14T22:50:18.645Z,16.93
2019-02-14T22:52:48.029Z,18.27
2019-02-14T22:55:17.399Z,18.20
2019-02-14T22:57:46.762Z,19.70
2019-02-14T23:00:36.103Z,18.87
2019-02-14T23:03:06.080Z,18.93
2019-02-14T23:05:35.537Z,19.03
2019-02-14T23:08:05.074Z,18.97
2019-02-14T23:10:34.511Z,28.07
2019-02-14T23:13:04.280Z,31.23
2019-02-14T23:15:33.812Z,43.87
2019-02-14T23:18:03.534Z,33.73
2019-02-14T23:20:32.923Z,33.13
2019-02-14T23:23:02.591Z,31.50
2019-02-14T23:25:31.996Z,30.87
2019-02-14T23:28:01.384Z,24.00
2019-02-14T23:30:30.728Z,22.00
2019-02-14T23:33:00.760Z,21.17
2019-02-14T23:35:30.248Z,19.90
2019-02-14T23:37:59.541Z,17.10
2019-02-14T23:40:28.970Z,17.97
2019-02-14T23:43:04.373Z,18.67
2019-02-14T23:45:29.583Z,17.23
2019-02-14T23:48:00.504Z,17.43
2019-02-14T23:50:29.940Z,17.13
2019-02-14T23:52:59.384Z,19.63
2019-02-14T23:55:28.811Z,16.30
2019-02-14T23:57:58.213Z,17.47
